sensor_id;sensor_type;location;lat;lon;timestamp;P1;durP1;ratioP1;P2;durP2;ratioP2
77948;SDS011;67146;51.236;-0.336;2023-07-13T00:02:08;6.90;;;1.53;;
77948;SDS011;67146;51.236;-0.336;2023-07-13T00:04:33;5.25;;;1.95;;
77948;SDS011;67146;51.236;-0.336;2023-07-13T00:06:59;7.73;;;1.10;;
77948;SDS011;67146;51.236;-0.336;2023-07-13T00:09:24;7.22;;;1.70;;
77948;SDS011;67146;51.236;-0.336;2023-07-13T00:11:50;7.00;;;1.45;;
77948;SDS011;67146;51.236;-0.336;2023-07-13T00:14:17;11.93;;;1.63;;
77948;SDS011;67146;51.236;-0.336;2023-07-13T00:16:42;11.57;;;1.70;;
77948;SDS011;67146;51.236;-0.336;2023-07-13T00:19:11;10.55;;;1.83;;
77948;SDS011;67146;51.236;-0.336;2023-07-13T00:21:37;7.85;;;2.22;;
77948;SDS011;67146;51.236;-0.336;2023-07-13T00:24:04;10.15;;;1.67;;
77948;SDS011;67146;51.236;-0.336;2023-07-13T00:26:30;11.07;;;2.15;;
77948;SDS011;67146;51.236;-0.336;2023-07-13T00:28:57;9.15;;;2.35;;
77948;SDS011;67146;51.236;-0.336;2023-07-13T00:31:23;6.90;;;1.95;;
77948;SDS011;67146;51.236;-0.336;2023-07-13T00:33:48;9.10;;;1.70;;
77948;SDS011;67146;51.236;-0.336;2023-07-13T00:36:14;8.90;;;1.75;;
77948;SDS011;67146;51.236;-0.336;2023-07-13T00:38:40;10.30;;;1.90;;
77948;SDS011;67146;51.236;-0.336;2023-07-13T00:41:05;8.27;;;1.92;;
77948;SDS011;67146;51.236;-0.336;2023-07-13T00:43:30;10.88;;;1.83;;
77948;SDS011;67146;51.236;-0.336;2023-07-13T00:48:23;11.37;;;2.30;;
77948;SDS011;67146;51.236;-0.336;2023-07-13T00:50:52;8.18;;;1.70;;
77948;SDS011;67146;51.236;-0.336;2023-07-13T00:53:19;8.68;;;2.13;;
77948;SDS011;67146;51.236;-0.336;2023-07-13T00:55:45;7.38;;;2.17;;
77948;SDS011;67146;51.236;-0.336;2023-07-13T00:58:12;12.15;;;2.13;;
77948;SDS011;67146;51.236;-0.336;2023-07-13T01:00:37;8.57;;;1.50;;
77948;SDS011;67146;51.236;-0.336;2023-07-13T01:03:03;9.65;;;1.55;;
77948;SDS011;67146;51.236;-0.336;2023-07-13T01:05:30;11.27;;;1.70;;
77948;SDS011;67146;51.236;-0.336;2023-07-13T01:07:57;9.82;;;1.63;;
77948;SDS011;67146;51.236;-0.336;2023-07-13T01:10:23;9.10;;;1.80;;
77948;SDS011;67146;51.236;-0.336;2023-07-13T01:12:49;7.72;;;1.73;;
77948;SDS011;67146;51.236;-0.336;2023-07-13T01:17:58;9.55;;;1.83;;
77948;SDS011;67146;51.236;-0.336;2023-07-13T01:20:24;7.57;;;2.17;;
77948;SDS011;67146;51.236;-0.336;2023-07-13T01:22:49;10.98;;;2.15;;
77948;SDS011;67146;51.236;-0.336;2023-07-13T01:25:15;8.18;;;1.95;;
77948;SDS011;67146;51.236;-0.336;2023-07-13T01:27:41;9.85;;;2.20;;
77948;SDS011;67146;51.236;-0.336;2023-07-13T01:30:06;9.43;;;2.13;;
77948;SDS011;67146;51.236;-0.336;2023-07-13T01:32:32;9.57;;;1.90;;
77948;SDS011;67146;51.236;-0.336;2023-07-13T01:34:59;7.25;;;1.92;;
77948;SDS011;67146;51.236;-0.336;2023-07-13T01:37:24;12.27;;;1.80;;
77948;SDS011;67146;51.236;-0.336;2023-07-13T01:39:51;8.65;;;1.77;;
77948;SDS011;67146;51.236;-0.336;2023-07-13T01:42:16;9.07;;;2.15;;
77948;SDS011;67146;51.236;-0.336;2023-07-13T01:44:42;9.57;;;2.20;;
77948;SDS011;67146;51.236;-0.336;2023-07-13T01:47:07;10.47;;;2.17;;
77948;SDS011;67146;51.236;-0.336;2023-07-13T01:49:33;10.80;;;2.05;;
77948;SDS011;67146;51.236;-0.336;2023-07-13T01:51:58;9.53;;;1.67;;
77948;SDS011;67146;51.236;-0.336;2023-07-13T01:54:23;9.50;;;1.93;;
77948;SDS011;67146;51.236;-0.336;2023-07-13T01:56:49;14.27;;;2.47;;
77948;SDS011;67146;51.236;-0.336;2023-07-13T01:59:14;9.40;;;1.97;;
77948;SDS011;67146;51.236;-0.336;2023-07-13T02:01:39;11.73;;;2.40;;
77948;SDS011;67146;51.236;-0.336;2023-07-13T02:04:05;10.05;;;2.05;;
77948;SDS011;67146;51.236;-0.336;2023-07-13T02:06:30;11.63;;;1.90;;
77948;SDS011;67146;51.236;-0.336;2023-07-13T02:08:55;9.10;;;2.07;;
77948;SDS011;67146;51.236;-0.336;2023-07-13T02:11:21;6.53;;;2.00;;
77948;SDS011;67146;51.236;-0.336;2023-07-13T02:13:46;11.77;;;2.25;;
77948;SDS011;67146;51.236;-0.336;2023-07-13T02:16:11;10.17;;;2.07;;
77948;SDS011;67146;51.236;-0.336;2023-07-13T02:18:37;11.27;;;2.33;;
77948;SDS011;67146;51.236;-0.336;2023-07-13T02:21:02;9.30;;;1.88;;
77948;SDS011;67146;51.236;-0.336;2023-07-13T02:23:28;9.35;;;2.28;;
77948;SDS011;67146;51.236;-0.336;2023-07-13T02:25:57;10.40;;;2.45;;
77948;SDS011;67146;51.236;-0.336;2023-07-13T02:28:23;8.75;;;2.08;;
77948;SDS011;67146;51.236;-0.336;2023-07-13T02:30:48;8.80;;;2.75;;
77948;SDS011;67146;51.236;-0.336;2023-07-13T02:33:13;10.60;;;2.67;;
77948;SDS011;67146;51.236;-0.336;2023-07-13T02:35:39;8.73;;;2.00;;
77948;SDS011;67146;51.236;-0.336;2023-07-13T02:38:04;8.17;;;2.50;;
77948;SDS011;67146;51.236;-0.336;2023-07-13T02:40:30;10.30;;;1.95;;
77948;SDS011;67146;51.236;-0.336;2023-07-13T02:42:58;10.73;;;1.85;;
77948;SDS011;67146;51.236;-0.336;2023-07-13T02:45:23;6.63;;;2.00;;
77948;SDS011;67146;51.236;-0.336;2023-07-13T02:47:48;9.63;;;2.33;;
77948;SDS011;67146;51.236;-0.336;2023-07-13T02:50:14;11.80;;;2.00;;
77948;SDS011;67146;51.236;-0.336;2023-07-13T02:52:39;8.77;;;1.77;;
77948;SDS011;67146;51.236;-0.336;2023-07-13T02:55:04;8.33;;;1.40;;
77948;SDS011;67146;51.236;-0.336;2023-07-13T02:57:30;9.57;;;1.60;;
77948;SDS011;67146;51.236;-0.336;2023-07-13T02:59:57;10.05;;;2.47;;
77948;SDS011;67146;51.236;-0.336;2023-07-13T03:02:23;9.57;;;1.70;;
77948;SDS011;67146;51.236;-0.336;2023-07-13T03:04:48;7.78;;;1.58;;
77948;SDS011;67146;51.236;-0.336;2023-07-13T03:07:14;11.13;;;2.03;;
77948;SDS011;67146;51.236;-0.336;2023-07-13T03:09:40;7.68;;;1.83;;
77948;SDS011;67146;51.236;-0.336;2023-07-13T03:12:06;8.18;;;2.60;;
77948;SDS011;67146;51.236;-0.336;2023-07-13T03:14:33;11.02;;;2.63;;
77948;SDS011;67146;51.236;-0.336;2023-07-13T03:16:59;10.45;;;2.30;;
77948;SDS011;67146;51.236;-0.336;2023-07-13T03:19:24;9.98;;;2.33;;
77948;SDS011;67146;51.236;-0.336;2023-07-13T03:21:49;7.47;;;1.65;;
77948;SDS011;67146;51.236;-0.336;2023-07-13T03:24:15;9.57;;;2.30;;
77948;SDS011;67146;51.236;-0.336;2023-07-13T03:26:40;7.70;;;1.87;;
77948;SDS011;67146;51.236;-0.336;2023-07-13T03:29:05;10.87;;;2.23;;
77948;SDS011;67146;51.236;-0.336;2023-07-13T03:31:32;7.10;;;2.03;;
77948;SDS011;67146;51.236;-0.336;2023-07-13T03:33:59;11.82;;;2.72;;
77948;SDS011;67146;51.236;-0.336;2023-07-13T03:36:27;9.77;;;2.42;;
77948;SDS011;67146;51.236;-0.336;2023-07-13T03:38:55;9.95;;;2.28;;
77948;SDS011;67146;51.236;-0.336;2023-07-13T03:41:23;9.45;;;2.53;;
77948;SDS011;67146;51.236;-0.336;2023-07-13T03:43:49;7.47;;;1.85;;
77948;SDS011;67146;51.236;-0.336;2023-07-13T03:46:14;8.02;;;1.70;;
77948;SDS011;67146;51.236;-0.336;2023-07-13T03:48:41;7.95;;;1.80;;
77948;SDS011;67146;51.236;-0.336;2023-07-13T03:51:08;8.77;;;1.88;;
77948;SDS011;67146;51.236;-0.336;2023-07-13T03:53:37;10.27;;;2.25;;
77948;SDS011;67146;51.236;-0.336;2023-07-13T03:56:03;6.03;;;2.05;;
77948;SDS011;67146;51.236;-0.336;2023-07-13T03:58:36;11.55;;;2.70;;
77948;SDS011;67146;51.236;-0.336;2023-07-13T04:01:03;8.35;;;2.45;;
77948;SDS011;67146;51.236;-0.336;2023-07-13T04:03:30;10.20;;;2.22;;
77948;SDS011;67146;51.236;-0.336;2023-07-13T04:05:58;8.13;;;2.20;;
77948;SDS011;67146;51.236;-0.336;2023-07-13T04:08:28;10.07;;;2.33;;
77948;SDS011;67146;51.236;-0.336;2023-07-13T04:10:55;12.02;;;2.20;;
77948;SDS011;67146;51.236;-0.336;2023-07-13T04:13:21;8.98;;;1.95;;
77948;SDS011;67146;51.236;-0.336;2023-07-13T04:15:47;8.45;;;1.92;;
77948;SDS011;67146;51.236;-0.336;2023-07-13T04:18:12;8.27;;;1.90;;
77948;SDS011;67146;51.236;-0.336;2023-07-13T04:20:38;12.30;;;2.30;;
77948;SDS011;67146;51.236;-0.336;2023-07-13T04:23:03;10.65;;;2.35;;
77948;SDS011;67146;51.236;-0.336;2023-07-13T04:25:28;9.10;;;2.33;;
77948;SDS011;67146;51.236;-0.336;2023-07-13T04:27:54;8.80;;;2.10;;
77948;SDS011;67146;51.236;-0.336;2023-07-13T04:30:19;9.45;;;2.28;;
77948;SDS011;67146;51.236;-0.336;2023-07-13T04:32:45;8.20;;;1.80;;
77948;SDS011;67146;51.236;-0.336;2023-07-13T04:35:10;11.45;;;2.30;;
77948;SDS011;67146;51.236;-0.336;2023-07-13T04:37:36;7.43;;;2.10;;
77948;SDS011;67146;51.236;-0.336;2023-07-13T04:40:01;12.43;;;2.10;;
77948;SDS011;67146;51.236;-0.336;2023-07-13T04:42:28;9.02;;;2.88;;
77948;SDS011;67146;51.236;-0.336;2023-07-13T04:44:54;9.48;;;2.33;;
77948;SDS011;67146;51.236;-0.336;2023-07-13T04:47:19;6.60;;;1.67;;
77948;SDS011;67146;51.236;-0.336;2023-07-13T04:49:45;7.63;;;2.50;;
77948;SDS011;67146;51.236;-0.336;2023-07-13T04:52:10;7.07;;;2.05;;
77948;SDS011;67146;51.236;-0.336;2023-07-13T04:54:36;10.57;;;2.15;;
77948;SDS011;67146;51.236;-0.336;2023-07-13T04:57:02;8.35;;;2.90;;
77948;SDS011;67146;51.236;-0.336;2023-07-13T04:59:29;7.93;;;2.10;;
77948;SDS011;67146;51.236;-0.336;2023-07-13T05:01:55;10.68;;;2.55;;
77948;SDS011;67146;51.236;-0.336;2023-07-13T05:04:20;8.93;;;2.15;;
77948;SDS011;67146;51.236;-0.336;2023-07-13T05:06:45;8.23;;;2.00;;
77948;SDS011;67146;51.236;-0.336;2023-07-13T05:09:11;6.70;;;2.00;;
77948;SDS011;67146;51.236;-0.336;2023-07-13T05:11:37;7.20;;;1.90;;
77948;SDS011;67146;51.236;-0.336;2023-07-13T05:14:03;7.82;;;2.35;;
77948;SDS011;67146;51.236;-0.336;2023-07-13T05:16:28;9.75;;;1.73;;
77948;SDS011;67146;51.236;-0.336;2023-07-13T05:18:53;6.40;;;1.53;;
77948;SDS011;67146;51.236;-0.336;2023-07-13T05:21:19;5.63;;;1.45;;
77948;SDS011;67146;51.236;-0.336;2023-07-13T05:23:44;7.40;;;2.67;;
77948;SDS011;67146;51.236;-0.336;2023-07-13T05:26:10;8.00;;;1.90;;
77948;SDS011;67146;51.236;-0.336;2023-07-13T05:28:35;8.70;;;1.90;;
77948;SDS011;67146;51.236;-0.336;2023-07-13T05:31:01;6.60;;;1.92;;
77948;SDS011;67146;51.236;-0.336;2023-07-13T05:33:26;7.13;;;1.50;;
77948;SDS011;67146;51.236;-0.336;2023-07-13T05:35:52;7.32;;;2.05;;
77948;SDS011;67146;51.236;-0.336;2023-07-13T05:38:17;12.35;;;2.60;;
77948;SDS011;67146;51.236;-0.336;2023-07-13T05:40:43;8.10;;;1.63;;
77948;SDS011;67146;51.236;-0.336;2023-07-13T05:43:09;6.18;;;1.85;;
77948;SDS011;67146;51.236;-0.336;2023-07-13T05:45:34;6.35;;;1.77;;
77948;SDS011;67146;51.236;-0.336;2023-07-13T05:47:59;5.93;;;1.10;;
77948;SDS011;67146;51.236;-0.336;2023-07-13T05:50:25;8.77;;;1.73;;
77948;SDS011;67146;51.236;-0.336;2023-07-13T05:52:51;6.82;;;1.52;;
77948;SDS011;67146;51.236;-0.336;2023-07-13T05:55:17;8.00;;;2.30;;
77948;SDS011;67146;51.236;-0.336;2023-07-13T05:57:42;6.55;;;1.10;;
77948;SDS011;67146;51.236;-0.336;2023-07-13T06:00:08;7.80;;;1.67;;
77948;SDS011;67146;51.236;-0.336;2023-07-13T06:02:34;6.85;;;1.65;;
77948;SDS011;67146;51.236;-0.336;2023-07-13T06:05:00;9.77;;;1.88;;
77948;SDS011;67146;51.236;-0.336;2023-07-13T06:07:25;7.20;;;2.07;;
77948;SDS011;67146;51.236;-0.336;2023-07-13T06:09:50;9.40;;;2.03;;
77948;SDS011;67146;51.236;-0.336;2023-07-13T06:12:16;5.78;;;2.20;;
77948;SDS011;67146;51.236;-0.336;2023-07-13T06:14:41;6.63;;;1.65;;
77948;SDS011;67146;51.236;-0.336;2023-07-13T06:17:07;7.23;;;1.50;;
77948;SDS011;67146;51.236;-0.336;2023-07-13T06:19:32;9.15;;;2.53;;
77948;SDS011;67146;51.236;-0.336;2023-07-13T06:21:58;11.57;;;3.05;;
77948;SDS011;67146;51.236;-0.336;2023-07-13T06:24:24;8.23;;;1.97;;
77948;SDS011;67146;51.236;-0.336;2023-07-13T06:26:50;7.93;;;1.60;;
77948;SDS011;67146;51.236;-0.336;2023-07-13T06:29:15;7.73;;;1.77;;
77948;SDS011;67146;51.236;-0.336;2023-07-13T06:31:40;9.00;;;1.55;;
77948;SDS011;67146;51.236;-0.336;2023-07-13T06:34:06;4.80;;;1.60;;
77948;SDS011;67146;51.236;-0.336;2023-07-13T06:36:31;8.77;;;1.70;;
77948;SDS011;67146;51.236;-0.336;2023-07-13T06:38:56;5.32;;;1.85;;
77948;SDS011;67146;51.236;-0.336;2023-07-13T06:41:22;6.20;;;1.20;;
77948;SDS011;67146;51.236;-0.336;2023-07-13T06:43:47;7.20;;;1.55;;
77948;SDS011;67146;51.236;-0.336;2023-07-13T06:46:13;6.63;;;1.07;;
77948;SDS011;67146;51.236;-0.336;2023-07-13T06:48:38;6.63;;;1.40;;
77948;SDS011;67146;51.236;-0.336;2023-07-13T06:51:03;5.25;;;1.10;;
77948;SDS011;67146;51.236;-0.336;2023-07-13T06:53:29;5.57;;;1.27;;
77948;SDS011;67146;51.236;-0.336;2023-07-13T06:55:54;8.83;;;1.37;;
77948;SDS011;67146;51.236;-0.336;2023-07-13T06:58:20;6.93;;;1.10;;
77948;SDS011;67146;51.236;-0.336;2023-07-13T07:00:46;6.80;;;1.27;;
77948;SDS011;67146;51.236;-0.336;2023-07-13T07:03:11;5.72;;;1.00;;
77948;SDS011;67146;51.236;-0.336;2023-07-13T07:05:37;5.18;;;0.90;;
77948;SDS011;67146;51.236;-0.336;2023-07-13T07:08:02;5.83;;;1.60;;
77948;SDS011;67146;51.236;-0.336;2023-07-13T07:10:29;6.05;;;1.00;;
77948;SDS011;67146;51.236;-0.336;2023-07-13T07:12:55;2.55;;;0.57;;
77948;SDS011;67146;51.236;-0.336;2023-07-13T07:15:20;6.97;;;0.90;;
77948;SDS011;67146;51.236;-0.336;2023-07-13T07:17:45;5.00;;;1.17;;
77948;SDS011;67146;51.236;-0.336;2023-07-13T07:20:11;5.53;;;0.60;;
77948;SDS011;67146;51.236;-0.336;2023-07-13T07:22:37;10.85;;;0.90;;
77948;SDS011;67146;51.236;-0.336;2023-07-13T07:25:02;4.20;;;0.85;;
77948;SDS011;67146;51.236;-0.336;2023-07-13T07:27:28;3.97;;;0.90;;
77948;SDS011;67146;51.236;-0.336;2023-07-13T07:29:53;7.85;;;1.10;;
77948;SDS011;67146;51.236;-0.336;2023-07-13T07:32:19;3.33;;;0.60;;
77948;SDS011;67146;51.236;-0.336;2023-07-13T07:34:44;4.32;;;0.82;;
77948;SDS011;67146;51.236;-0.336;2023-07-13T07:37:11;5.72;;;0.82;;
77948;SDS011;67146;51.236;-0.336;2023-07-13T07:39:37;4.82;;;0.63;;
77948;SDS011;67146;51.236;-0.336;2023-07-13T07:42:03;5.57;;;0.82;;
77948;SDS011;67146;51.236;-0.336;2023-07-13T07:44:28;3.90;;;1.00;;
77948;SDS011;67146;51.236;-0.336;2023-07-13T07:46:55;5.63;;;1.60;;
77948;SDS011;67146;51.236;-0.336;2023-07-13T07:49:21;5.33;;;1.37;;
77948;SDS011;67146;51.236;-0.336;2023-07-13T07:51:46;6.30;;;1.27;;
77948;SDS011;67146;51.236;-0.336;2023-07-13T07:54:12;5.57;;;0.90;;
77948;SDS011;67146;51.236;-0.336;2023-07-13T07:56:37;6.27;;;0.87;;
77948;SDS011;67146;51.236;-0.336;2023-07-13T07:59:02;5.63;;;1.05;;
77948;SDS011;67146;51.236;-0.336;2023-07-13T08:01:28;5.38;;;1.20;;
77948;SDS011;67146;51.236;-0.336;2023-07-13T08:03:53;4.93;;;0.80;;
77948;SDS011;67146;51.236;-0.336;2023-07-13T08:06:18;4.53;;;0.90;;
77948;SDS011;67146;51.236;-0.336;2023-07-13T08:08:45;5.18;;;0.93;;
77948;SDS011;67146;51.236;-0.336;2023-07-13T08:11:10;5.07;;;0.88;;
77948;SDS011;67146;51.236;-0.336;2023-07-13T08:13:36;5.68;;;0.73;;
77948;SDS011;67146;51.236;-0.336;2023-07-13T08:16:03;6.63;;;1.45;;
77948;SDS011;67146;51.236;-0.336;2023-07-13T08:18:29;7.47;;;0.93;;
77948;SDS011;67146;51.236;-0.336;2023-07-13T08:20:55;5.50;;;1.07;;
77948;SDS011;67146;51.236;-0.336;2023-07-13T08:23:21;3.88;;;0.47;;
77948;SDS011;67146;51.236;-0.336;2023-07-13T08:25:53;3.92;;;0.65;;
77948;SDS011;67146;51.236;-0.336;2023-07-13T08:28:19;6.65;;;1.17;;
77948;SDS011;67146;51.236;-0.336;2023-07-13T08:30:45;4.05;;;0.90;;
77948;SDS011;67146;51.236;-0.336;2023-07-13T08:33:14;5.38;;;1.02;;
77948;SDS011;67146;51.236;-0.336;2023-07-13T08:35:40;4.18;;;0.80;;
77948;SDS011;67146;51.236;-0.336;2023-07-13T08:38:05;3.20;;;0.60;;
77948;SDS011;67146;51.236;-0.336;2023-07-13T08:40:30;3.70;;;0.67;;
77948;SDS011;67146;51.236;-0.336;2023-07-13T08:42:58;4.27;;;0.73;;
77948;SDS011;67146;51.236;-0.336;2023-07-13T08:45:33;5.72;;;0.75;;
77948;SDS011;67146;51.236;-0.336;2023-07-13T08:50:38;3.10;;;0.60;;
77948;SDS011;67146;51.236;-0.336;2023-07-13T08:53:17;4.72;;;1.23;;
77948;SDS011;67146;51.236;-0.336;2023-07-13T08:55:43;4.22;;;1.30;;
77948;SDS011;67146;51.236;-0.336;2023-07-13T08:58:12;4.07;;;1.25;;
77948;SDS011;67146;51.236;-0.336;2023-07-13T09:03:23;3.10;;;0.43;;
77948;SDS011;67146;51.236;-0.336;2023-07-13T09:05:52;5.07;;;0.60;;
77948;SDS011;67146;51.236;-0.336;2023-07-13T09:16:16;4.25;;;0.70;;
77948;SDS011;67146;51.236;-0.336;2023-07-13T09:18:46;4.38;;;1.17;;
77948;SDS011;67146;51.236;-0.336;2023-07-13T09:23:43;3.00;;;0.65;;
77948;SDS011;67146;51.236;-0.336;2023-07-13T09:26:19;4.03;;;0.50;;
77948;SDS011;67146;51.236;-0.336;2023-07-13T09:28:50;3.80;;;0.60;;
77948;SDS011;67146;51.236;-0.336;2023-07-13T09:31:19;4.57;;;1.25;;
77948;SDS011;67146;51.236;-0.336;2023-07-13T09:33:47;5.05;;;0.80;;
77948;SDS011;67146;51.236;-0.336;2023-07-13T09:36:32;5.60;;;0.88;;
77948;SDS011;67146;51.236;-0.336;2023-07-13T09:41:50;4.53;;;0.90;;
77948;SDS011;67146;51.236;-0.336;2023-07-13T09:44:27;4.35;;;0.95;;
77948;SDS011;67146;51.236;-0.336;2023-07-13T09:46:55;3.88;;;0.50;;
77948;SDS011;67146;51.236;-0.336;2023-07-13T09:49:34;3.92;;;0.80;;
77948;SDS011;67146;51.236;-0.336;2023-07-13T09:52:10;3.63;;;0.60;;
77948;SDS011;67146;51.236;-0.336;2023-07-13T09:54:36;3.35;;;0.82;;
77948;SDS011;67146;51.236;-0.336;2023-07-13T09:57:03;3.72;;;0.98;;
77948;SDS011;67146;51.236;-0.336;2023-07-13T09:59:40;5.20;;;1.00;;
77948;SDS011;67146;51.236;-0.336;2023-07-13T10:05:05;4.65;;;0.70;;
77948;SDS011;67146;51.236;-0.336;2023-07-13T10:07:32;5.50;;;0.77;;
77948;SDS011;67146;51.236;-0.336;2023-07-13T10:10:03;5.45;;;1.00;;
77948;SDS011;67146;51.236;-0.336;2023-07-13T10:12:38;4.40;;;0.60;;
77948;SDS011;67146;51.236;-0.336;2023-07-13T10:15:04;4.63;;;0.68;;
77948;SDS011;67146;51.236;-0.336;2023-07-13T10:17:34;4.13;;;1.00;;
77948;SDS011;67146;51.236;-0.336;2023-07-13T10:20:04;3.85;;;0.70;;
77948;SDS011;67146;51.236;-0.336;2023-07-13T10:25:16;4.00;;;1.02;;
77948;SDS011;67146;51.236;-0.336;2023-07-13T10:27:47;3.55;;;1.17;;
77948;SDS011;67146;51.236;-0.336;2023-07-13T10:33:10;2.97;;;0.75;;
77948;SDS011;67146;51.236;-0.336;2023-07-13T10:35:37;3.00;;;0.75;;
77948;SDS011;67146;51.236;-0.336;2023-07-13T10:38:05;3.45;;;0.52;;
77948;SDS011;67146;51.236;-0.336;2023-07-13T10:43:23;7.20;;;1.70;;
77948;SDS011;67146;51.236;-0.336;2023-07-13T10:45:52;2.72;;;0.75;;
77948;SDS011;67146;51.236;-0.336;2023-07-13T10:48:19;3.80;;;0.73;;
77948;SDS011;67146;51.236;-0.336;2023-07-13T10:50:46;3.17;;;0.90;;
77948;SDS011;67146;51.236;-0.336;2023-07-13T10:58:22;4.22;;;0.60;;
77948;SDS011;67146;51.236;-0.336;2023-07-13T11:03:32;4.13;;;0.90;;
77948;SDS011;67146;51.236;-0.336;2023-07-13T11:08:50;4.13;;;1.38;;
77948;SDS011;67146;51.236;-0.336;2023-07-13T11:21:30;4.10;;;0.70;;
77948;SDS011;67146;51.236;-0.336;2023-07-13T11:24:15;4.38;;;0.63;;
77948;SDS011;67146;51.236;-0.336;2023-07-13T11:31:57;4.78;;;1.35;;
77948;SDS011;67146;51.236;-0.336;2023-07-13T11:34:29;4.50;;;0.93;;
77948;SDS011;67146;51.236;-0.336;2023-07-13T11:36:57;5.00;;;1.00;;
77948;SDS011;67146;51.236;-0.336;2023-07-13T11:39:28;4.63;;;1.00;;
77948;SDS011;67146;51.236;-0.336;2023-07-13T11:42:00;3.47;;;0.73;;
77948;SDS011;67146;51.236;-0.336;2023-07-13T11:44:27;5.38;;;1.02;;
77948;SDS011;67146;51.236;-0.336;2023-07-13T11:46:55;2.92;;;0.77;;
77948;SDS011;67146;51.236;-0.336;2023-07-13T11:49:22;3.83;;;0.40;;
77948;SDS011;67146;51.236;-0.336;2023-07-13T11:51:49;3.80;;;0.85;;
77948;SDS011;67146;51.236;-0.336;2023-07-13T11:57:00;3.80;;;0.95;;
77948;SDS011;67146;51.236;-0.336;2023-07-13T11:59:27;4.22;;;0.73;;
77948;SDS011;67146;51.236;-0.336;2023-07-13T12:01:54;2.42;;;0.45;;
77948;SDS011;67146;51.236;-0.336;2023-07-13T12:04:30;3.63;;;1.23;;
77948;SDS011;67146;51.236;-0.336;2023-07-13T12:07:04;4.57;;;0.95;;
77948;SDS011;67146;51.236;-0.336;2023-07-13T12:09:34;5.25;;;0.82;;
77948;SDS011;67146;51.236;-0.336;2023-07-13T12:12:01;5.63;;;1.10;;
77948;SDS011;67146;51.236;-0.336;2023-07-13T12:14:27;3.58;;;0.65;;
77948;SDS011;67146;51.236;-0.336;2023-07-13T12:16:53;4.30;;;1.10;;
77948;SDS011;67146;51.236;-0.336;2023-07-13T12:19:26;4.40;;;0.52;;
77948;SDS011;67146;51.236;-0.336;2023-07-13T12:21:56;3.15;;;0.55;;
77948;SDS011;67146;51.236;-0.336;2023-07-13T12:24:23;3.13;;;0.70;;
77948;SDS011;67146;51.236;-0.336;2023-07-13T12:26:58;4.35;;;0.60;;
77948;SDS011;67146;51.236;-0.336;2023-07-13T12:29:26;3.33;;;0.55;;
77948;SDS011;67146;51.236;-0.336;2023-07-13T12:31:51;4.18;;;0.60;;
77948;SDS011;67146;51.236;-0.336;2023-07-13T12:34:21;3.40;;;0.70;;
77948;SDS011;67146;51.236;-0.336;2023-07-13T12:36:48;3.85;;;0.80;;
77948;SDS011;67146;51.236;-0.336;2023-07-13T12:39:17;3.10;;;0.90;;
77948;SDS011;67146;51.236;-0.336;2023-07-13T12:41:45;3.20;;;0.52;;
77948;SDS011;67146;51.236;-0.336;2023-07-13T12:44:11;4.97;;;0.73;;
77948;SDS011;67146;51.236;-0.336;2023-07-13T12:46:38;2.63;;;0.35;;
77948;SDS011;67146;51.236;-0.336;2023-07-13T12:49:05;5.45;;;0.70;;
77948;SDS011;67146;51.236;-0.336;2023-07-13T12:51:32;4.15;;;1.00;;
77948;SDS011;67146;51.236;-0.336;2023-07-13T12:54:05;4.93;;;0.73;;
77948;SDS011;67146;51.236;-0.336;2023-07-13T12:56:33;4.82;;;0.90;;
77948;SDS011;67146;51.236;-0.336;2023-07-13T12:59:00;5.57;;;1.25;;
77948;SDS011;67146;51.236;-0.336;2023-07-13T13:01:30;3.85;;;0.65;;
77948;SDS011;67146;51.236;-0.336;2023-07-13T13:04:00;3.70;;;0.82;;
77948;SDS011;67146;51.236;-0.336;2023-07-13T13:06:28;3.05;;;0.63;;
77948;SDS011;67146;51.236;-0.336;2023-07-13T13:08:55;4.13;;;0.70;;
77948;SDS011;67146;51.236;-0.336;2023-07-13T13:11:23;6.07;;;0.82;;
77948;SDS011;67146;51.236;-0.336;2023-07-13T13:13:49;4.45;;;1.10;;
77948;SDS011;67146;51.236;-0.336;2023-07-13T13:16:23;4.32;;;0.73;;
77948;SDS011;67146;51.236;-0.336;2023-07-13T13:18:53;4.80;;;0.80;;
77948;SDS011;67146;51.236;-0.336;2023-07-13T13:23:46;4.13;;;0.85;;
77948;SDS011;67146;51.236;-0.336;2023-07-13T13:26:12;5.75;;;0.98;;
77948;SDS011;67146;51.236;-0.336;2023-07-13T13:28:40;3.53;;;1.10;;
77948;SDS011;67146;51.236;-0.336;2023-07-13T13:31:07;3.83;;;0.80;;
77948;SDS011;67146;51.236;-0.336;2023-07-13T13:33:37;4.40;;;0.98;;
77948;SDS011;67146;51.236;-0.336;2023-07-13T13:36:04;4.28;;;0.82;;
77948;SDS011;67146;51.236;-0.336;2023-07-13T13:38:29;2.63;;;0.80;;
77948;SDS011;67146;51.236;-0.336;2023-07-13T13:40:55;3.10;;;0.52;;
77948;SDS011;67146;51.236;-0.336;2023-07-13T13:43:25;5.55;;;0.93;;
77948;SDS011;67146;51.236;-0.336;2023-07-13T13:45:52;5.70;;;0.70;;
77948;SDS011;67146;51.236;-0.336;2023-07-13T13:48:29;5.93;;;1.00;;
77948;SDS011;67146;51.236;-0.336;2023-07-13T13:50:57;3.65;;;0.70;;
77948;SDS011;67146;51.236;-0.336;2023-07-13T13:53:23;2.88;;;0.43;;
77948;SDS011;67146;51.236;-0.336;2023-07-13T13:55:49;4.15;;;0.95;;
77948;SDS011;67146;51.236;-0.336;2023-07-13T13:58:14;5.20;;;1.33;;
77948;SDS011;67146;51.236;-0.336;2023-07-13T14:00:40;4.60;;;1.15;;
77948;SDS011;67146;51.236;-0.336;2023-07-13T14:03:05;4.95;;;0.93;;
77948;SDS011;67146;51.236;-0.336;2023-07-13T14:05:43;4.97;;;1.00;;
77948;SDS011;67146;51.236;-0.336;2023-07-13T14:08:16;3.63;;;1.20;;
77948;SDS011;67146;51.236;-0.336;2023-07-13T14:10:43;4.78;;;1.33;;
77948;SDS011;67146;51.236;-0.336;2023-07-13T14:13:17;4.65;;;1.15;;
77948;SDS011;67146;51.236;-0.336;2023-07-13T14:15:44;5.70;;;1.48;;
77948;SDS011;67146;51.236;-0.336;2023-07-13T14:18:09;4.60;;;1.08;;
77948;SDS011;67146;51.236;-0.336;2023-07-13T14:20:35;4.35;;;1.25;;
77948;SDS011;67146;51.236;-0.336;2023-07-13T14:23:00;7.60;;;1.30;;
77948;SDS011;67146;51.236;-0.336;2023-07-13T14:25:26;5.22;;;1.27;;
77948;SDS011;67146;51.236;-0.336;2023-07-13T14:27:53;5.00;;;1.05;;
77948;SDS011;67146;51.236;-0.336;2023-07-13T14:30:24;4.15;;;0.95;;
77948;SDS011;67146;51.236;-0.336;2023-07-13T14:32:49;5.43;;;1.02;;
77948;SDS011;67146;51.236;-0.336;2023-07-13T14:35:15;4.07;;;0.82;;
77948;SDS011;67146;51.236;-0.336;2023-07-13T14:37:42;3.65;;;1.23;;
77948;SDS011;67146;51.236;-0.336;2023-07-13T14:42:40;5.45;;;1.05;;
77948;SDS011;67146;51.236;-0.336;2023-07-13T14:45:05;4.43;;;0.93;;
77948;SDS011;67146;51.236;-0.336;2023-07-13T14:47:36;5.90;;;0.88;;
77948;SDS011;67146;51.236;-0.336;2023-07-13T14:50:02;5.05;;;1.30;;
77948;SDS011;67146;51.236;-0.336;2023-07-13T14:52:30;6.90;;;1.10;;
77948;SDS011;67146;51.236;-0.336;2023-07-13T14:54:55;5.90;;;1.50;;
77948;SDS011;67146;51.236;-0.336;2023-07-13T14:57:20;5.23;;;1.40;;
77948;SDS011;67146;51.236;-0.336;2023-07-13T14:59:46;5.30;;;1.40;;
77948;SDS011;67146;51.236;-0.336;2023-07-13T15:02:23;9.98;;;1.60;;
77948;SDS011;67146;51.236;-0.336;2023-07-13T15:04:52;6.82;;;1.73;;
77948;SDS011;67146;51.236;-0.336;2023-07-13T15:07:18;5.90;;;1.52;;
77948;SDS011;67146;51.236;-0.336;2023-07-13T15:09:46;6.03;;;1.15;;
77948;SDS011;67146;51.236;-0.336;2023-07-13T15:12:15;5.68;;;1.33;;
77948;SDS011;67146;51.236;-0.336;2023-07-13T15:14:41;7.25;;;1.27;;
77948;SDS011;67146;51.236;-0.336;2023-07-13T15:17:14;4.33;;;1.40;;
77948;SDS011;67146;51.236;-0.336;2023-07-13T15:20:03;6.75;;;0.95;;
77948;SDS011;67146;51.236;-0.336;2023-07-13T15:22:31;3.53;;;1.00;;
77948;SDS011;67146;51.236;-0.336;2023-07-13T15:24:56;5.43;;;1.08;;
77948;SDS011;67146;51.236;-0.336;2023-07-13T15:27:21;5.20;;;1.23;;
77948;SDS011;67146;51.236;-0.336;2023-07-13T15:29:47;5.20;;;1.50;;
77948;SDS011;67146;51.236;-0.336;2023-07-13T15:32:15;5.40;;;1.05;;
77948;SDS011;67146;51.236;-0.336;2023-07-13T15:34:40;5.80;;;1.17;;
77948;SDS011;67146;51.236;-0.336;2023-07-13T15:37:15;3.50;;;0.88;;
77948;SDS011;67146;51.236;-0.336;2023-07-13T15:39:41;6.63;;;1.08;;
77948;SDS011;67146;51.236;-0.336;2023-07-13T15:42:12;5.93;;;1.42;;